sensor_id;sensor_type;location;lat;lon;timestamp;temperature;humidity
52397;DHT22;38322;53.108;6.308;2023-06-24T05:02:46;16.60;99.90
52397;DHT22;38322;53.108;6.308;2023-06-24T05:05:12;16.50;99.90
52397;DHT22;38322;53.108;6.308;2023-06-24T05:07:38;16.60;99.90
52397;DHT22;38322;53.108;6.308;2023-06-24T05:10:05;16.70;99.90
52397;DHT22;38322;53.108;6.308;2023-06-24T05:12:31;16.80;99.90
52397;DHT22;38322;53.108;6.308;2023-06-24T05:14:57;16.80;99.90
52397;DHT22;38322;53.108;6.308;2023-06-24T05:17:23;16.90;99.90
52397;DHT22;38322;53.108;6.308;2023-06-24T05:19:49;17.00;99.90
52397;DHT22;38322;53.108;6.308;2023-06-24T05:22:16;17.10;99.90
52397;DHT22;38322;53.108;6.308;2023-06-24T05:24:42;17.20;99.90
52397;DHT22;38322;53.108;6.308;2023-06-24T05:27:08;17.30;99.90
52397;DHT22;38322;53.108;6.308;2023-06-24T05:29:34;17.40;99.90
52397;DHT22;38322;53.108;6.308;2023-06-24T05:32:00;17.50;99.90
52397;DHT22;38322;53.108;6.308;2023-06-24T05:34:29;17.60;99.90
52397;DHT22;38322;53.108;6.308;2023-06-24T05:36:55;17.60;99.90
52397;DHT22;38322;53.108;6.308;2023-06-24T05:39:21;17.70;99.90
52397;DHT22;38322;53.108;6.308;2023-06-24T05:41:47;17.80;99.90
52397;DHT22;38322;53.108;6.308;2023-06-24T05:44:14;17.90;99.90
52397;DHT22;38322;53.108;6.308;2023-06-24T05:46:40;18.00;99.90
52397;DHT22;38322;53.108;6.308;2023-06-24T05:49:06;18.00;99.90
52397;DHT22;38322;53.108;6.308;2023-06-24T05:51:31;18.00;99.90
52397;DHT22;38322;53.108;6.308;2023-06-24T05:53:57;18.00;99.90
52397;DHT22;38322;53.108;6.308;2023-06-24T05:56:23;18.10;99.90
52397;DHT22;38322;53.108;6.308;2023-06-24T05:58:49;18.20;99.90
52397;DHT22;38322;53.108;6.308;2023-06-24T06:01:15;18.20;99.90
52397;DHT22;38322;53.108;6.308;2023-06-24T06:03:41;18.40;99.90
52397;DHT22;38322;53.108;6.308;2023-06-24T06:06:07;18.50;99.90
52397;DHT22;38322;53.108;6.308;2023-06-24T06:08:33;18.60;99.90
52397;DHT22;38322;53.108;6.308;2023-06-24T06:11:00;18.70;99.90
52397;DHT22;38322;53.108;6.308;2023-06-24T06:13:28;18.80;99.90
52397;DHT22;38322;53.108;6.308;2023-06-24T06:15:54;19.00;99.90
52397;DHT22;38322;53.108;6.308;2023-06-24T06:18:20;19.00;99.90
52397;DHT22;38322;53.108;6.308;2023-06-24T06:20:46;19.20;99.90
52397;DHT22;38322;53.108;6.308;2023-06-24T06:23:12;19.30;99.90
52397;DHT22;38322;53.108;6.308;2023-06-24T06:25:38;19.50;99.90
52397;DHT22;38322;53.108;6.308;2023-06-24T06:28:05;19.60;99.90
52397;DHT22;38322;53.108;6.308;2023-06-24T06:30:31;19.80;99.90
52397;DHT22;38322;53.108;6.308;2023-06-24T06:32:57;19.90;99.90
52397;DHT22;38322;53.108;6.308;2023-06-24T06:35:22;20.10;99.90
52397;DHT22;38322;53.108;6.308;2023-06-24T06:37:48;20.30;99.90
52397;DHT22;38322;53.108;6.308;2023-06-24T06:40:20;20.40;99.90
52397;DHT22;38322;53.108;6.308;2023-06-24T06:42:46;20.50;99.90
52397;DHT22;38322;53.108;6.308;2023-06-24T06:45:11;20.60;99.90
52397;DHT22;38322;53.108;6.308;2023-06-24T06:47:37;20.60;99.90
52397;DHT22;38322;53.108;6.308;2023-06-24T06:50:04;20.60;99.90
52397;DHT22;38322;53.108;6.308;2023-06-24T06:52:29;20.70;99.90
52397;DHT22;38322;53.108;6.308;2023-06-24T06:54:56;20.70;99.90
52397;DHT22;38322;53.108;6.308;2023-06-24T06:57:22;20.70;99.90
52397;DHT22;38322;53.108;6.308;2023-06-24T06:59:48;20.70;99.90
52397;DHT22;38322;53.108;6.308;2023-06-24T07:02:17;20.70;99.90
52397;DHT22;38322;53.108;6.308;2023-06-24T07:04:44;20.80;99.90
52397;DHT22;38322;53.108;6.308;2023-06-24T07:07:09;20.80;99.90
52397;DHT22;38322;53.108;6.308;2023-06-24T07:09:35;20.80;99.90
52397;DHT22;38322;53.108;6.308;2023-06-24T07:12:02;20.80;99.90
52397;DHT22;38322;53.108;6.308;2023-06-24T07:14:28;20.90;99.90
52397;DHT22;38322;53.108;6.308;2023-06-24T07:16:54;20.90;99.90
52397;DHT22;38322;53.108;6.308;2023-06-24T07:19:20;21.00;99.90
52397;DHT22;38322;53.108;6.308;2023-06-24T07:21:45;21.10;99.90
52397;DHT22;38322;53.108;6.308;2023-06-24T07:24:11;21.20;99.90
52397;DHT22;38322;53.108;6.308;2023-06-24T07:26:37;21.30;99.90
52397;DHT22;38322;53.108;6.308;2023-06-24T07:29:06;21.40;99.90
52397;DHT22;38322;53.108;6.308;2023-06-24T07:31:33;21.50;99.90
52397;DHT22;38322;53.108;6.308;2023-06-24T07:33:59;21.50;99.90
52397;DHT22;38322;53.108;6.308;2023-06-24T07:36:25;21.60;99.90
52397;DHT22;38322;53.108;6.308;2023-06-24T07:38:51;21.70;99.90
52397;DHT22;38322;53.108;6.308;2023-06-24T07:41:16;21.80;99.90
52397;DHT22;38322;53.108;6.308;2023-06-24T07:43:42;21.90;99.90
52397;DHT22;38322;53.108;6.308;2023-06-24T07:46:08;21.90;99.90
52397;DHT22;38322;53.108;6.308;2023-06-24T07:48:34;21.90;99.90
52397;DHT22;38322;53.108;6.308;2023-06-24T07:51:00;21.90;99.90
52397;DHT22;38322;53.108;6.308;2023-06-24T07:53:26;22.00;99.90
52397;DHT22;38322;53.108;6.308;2023-06-24T07:55:52;22.10;99.90
52397;DHT22;38322;53.108;6.308;2023-06-24T07:58:18;22.10;99.90
52397;DHT22;38322;53.108;6.308;2023-06-24T08:00:45;22.20;99.90
52397;DHT22;38322;53.108;6.308;2023-06-24T08:03:12;22.20;99.90
52397;DHT22;38322;53.108;6.308;2023-06-24T08:05:38;22.20;99.90
52397;DHT22;38322;53.108;6.308;2023-06-24T08:08:05;22.20;99.90
52397;DHT22;38322;53.108;6.308;2023-06-24T08:10:32;22.20;99.90
52397;DHT22;38322;53.108;6.308;2023-06-24T08:12:58;22.20;99.90
52397;DHT22;38322;53.108;6.308;2023-06-24T08:15:24;22.20;99.90
52397;DHT22;38322;53.108;6.308;2023-06-24T08:17:52;22.20;99.90
52397;DHT22;38322;53.108;6.308;2023-06-24T08:20:21;22.30;99.90
52397;DHT22;38322;53.108;6.308;2023-06-24T08:22:47;22.30;99.90
52397;DHT22;38322;53.108;6.308;2023-06-24T08:25:13;22.30;99.90
52397;DHT22;38322;53.108;6.308;2023-06-24T08:27:39;22.40;99.90
52397;DHT22;38322;53.108;6.308;2023-06-24T08:30:06;22.50;99.90
52397;DHT22;38322;53.108;6.308;2023-06-24T08:32:32;22.50;99.90
52397;DHT22;38322;53.108;6.308;2023-06-24T08:34:58;22.50;99.90
52397;DHT22;38322;53.108;6.308;2023-06-24T08:37:24;22.70;99.90
52397;DHT22;38322;53.108;6.308;2023-06-24T08:39:49;22.70;99.90
52397;DHT22;38322;53.108;6.308;2023-06-24T08:42:15;22.70;99.90
52397;DHT22;38322;53.108;6.308;2023-06-24T08:44:41;22.80;99.90
52397;DHT22;38322;53.108;6.308;2023-06-24T08:47:07;22.90;99.90
52397;DHT22;38322;53.108;6.308;2023-06-24T08:49:35;23.10;99.90
52397;DHT22;38322;53.108;6.308;2023-06-24T08:52:08;23.10;99.90
52397;DHT22;38322;53.108;6.308;2023-06-24T08:54:38;23.30;99.90
52397;DHT22;38322;53.108;6.308;2023-06-24T08:57:06;23.30;99.90
52397;DHT22;38322;53.108;6.308;2023-06-24T08:59:34;23.40;99.90
52397;DHT22;38322;53.108;6.308;2023-06-24T09:02:01;23.50;99.90
52397;DHT22;38322;53.108;6.308;2023-06-24T09:04:27;23.50;99.90
52397;DHT22;38322;53.108;6.308;2023-06-24T09:06:53;23.50;99.90
52397;DHT22;38322;53.108;6.308;2023-06-24T09:09:21;23.60;99.90
52397;DHT22;38322;53.108;6.308;2023-06-24T09:11:57;23.70;99.90
52397;DHT22;38322;53.108;6.308;2023-06-24T09:14:25;23.80;99.90
52397;DHT22;38322;53.108;6.308;2023-06-24T09:16:53;23.80;99.90
52397;DHT22;38322;53.108;6.308;2023-06-24T09:19:26;23.80;99.90
52397;DHT22;38322;53.108;6.308;2023-06-24T09:22:02;23.90;99.90
52397;DHT22;38322;53.108;6.308;2023-06-24T09:24:33;23.90;99.90
52397;DHT22;38322;53.108;6.308;2023-06-24T09:26:59;24.00;99.90
52397;DHT22;38322;53.108;6.308;2023-06-24T09:29:26;24.00;99.90
52397;DHT22;38322;53.108;6.308;2023-06-24T09:31:53;24.10;99.90
52397;DHT22;38322;53.108;6.308;2023-06-24T09:34:21;24.10;99.90
52397;DHT22;38322;53.108;6.308;2023-06-24T09:36:55;24.20;99.90
52397;DHT22;38322;53.108;6.308;2023-06-24T09:39:21;24.30;99.90
52397;DHT22;38322;53.108;6.308;2023-06-24T09:41:49;24.30;99.90
52397;DHT22;38322;53.108;6.308;2023-06-24T09:44:16;24.40;99.90
52397;DHT22;38322;53.108;6.308;2023-06-24T09:46:45;24.40;99.90
52397;DHT22;38322;53.108;6.308;2023-06-24T09:49:11;24.40;99.90
52397;DHT22;38322;53.108;6.308;2023-06-24T09:51:39;24.50;99.90
52397;DHT22;38322;53.108;6.308;2023-06-24T09:54:06;24.50;99.90
52397;DHT22;38322;53.108;6.308;2023-06-24T09:56:35;24.60;99.90
52397;DHT22;38322;53.108;6.308;2023-06-24T09:59:04;24.70;99.90
52397;DHT22;38322;53.108;6.308;2023-06-24T10:01:32;24.70;99.90
52397;DHT22;38322;53.108;6.308;2023-06-24T10:03:58;24.80;99.90
52397;DHT22;38322;53.108;6.308;2023-06-24T10:06:26;24.80;99.90
52397;DHT22;38322;53.108;6.308;2023-06-24T10:08:52;24.90;99.90
52397;DHT22;38322;53.108;6.308;2023-06-24T10:11:18;25.00;99.90
52397;DHT22;38322;53.108;6.308;2023-06-24T10:13:44;25.00;99.90
52397;DHT22;38322;53.108;6.308;2023-06-24T10:16:11;25.00;99.90
52397;DHT22;38322;53.108;6.308;2023-06-24T10:18:38;25.00;99.90
52397;DHT22;38322;53.108;6.308;2023-06-24T10:21:06;25.10;99.90
52397;DHT22;38322;53.108;6.308;2023-06-24T10:26:24;25.10;99.90
52397;DHT22;38322;53.108;6.308;2023-06-24T10:31:51;25.30;99.90
52397;DHT22;38322;53.108;6.308;2023-06-24T10:34:30;25.50;99.90
52397;DHT22;38322;53.108;6.308;2023-06-24T10:39:39;25.40;99.90
52397;DHT22;38322;53.108;6.308;2023-06-24T10:42:28;25.30;99.90
52397;DHT22;38322;53.108;6.308;2023-06-24T10:44:57;25.10;99.90
52397;DHT22;38322;53.108;6.308;2023-06-24T10:47:26;25.20;99.90
52397;DHT22;38322;53.108;6.308;2023-06-24T10:49:52;25.40;99.90
52397;DHT22;38322;53.108;6.308;2023-06-24T10:52:19;25.60;99.90
52397;DHT22;38322;53.108;6.308;2023-06-24T10:54:47;26.00;99.90
52397;DHT22;38322;53.108;6.308;2023-06-24T10:57:14;26.20;99.90
52397;DHT22;38322;53.108;6.308;2023-06-24T10:59:40;26.30;99.90
52397;DHT22;38322;53.108;6.308;2023-06-24T11:02:08;26.30;99.90
52397;DHT22;38322;53.108;6.308;2023-06-24T11:04:51;26.50;99.90
52397;DHT22;38322;53.108;6.308;2023-06-24T11:07:18;26.60;99.90
52397;DHT22;38322;53.108;6.308;2023-06-24T11:09:49;26.70;99.90
52397;DHT22;38322;53.108;6.308;2023-06-24T11:12:16;26.80;99.60
52397;DHT22;38322;53.108;6.308;2023-06-24T11:14:42;26.90;99.60
52397;DHT22;38322;53.108;6.308;2023-06-24T11:17:09;26.80;99.20
52397;DHT22;38322;53.108;6.308;2023-06-24T11:19:35;26.60;99.10
52397;DHT22;38322;53.108;6.308;2023-06-24T11:22:05;26.40;99.20
52397;DHT22;38322;53.108;6.308;2023-06-24T11:24:32;26.10;99.20
52397;DHT22;38322;53.108;6.308;2023-06-24T11:26:58;25.90;98.80
52397;DHT22;38322;53.108;6.308;2023-06-24T11:29:24;25.70;98.80
52397;DHT22;38322;53.108;6.308;2023-06-24T11:31:53;25.60;99.00
52397;DHT22;38322;53.108;6.308;2023-06-24T11:34:19;25.60;99.20
52397;DHT22;38322;53.108;6.308;2023-06-24T11:36:48;25.80;98.80
52397;DHT22;38322;53.108;6.308;2023-06-24T11:39:27;25.90;98.30
52397;DHT22;38322;53.108;6.308;2023-06-24T11:41:54;25.80;98.00
52397;DHT22;38322;53.108;6.308;2023-06-24T11:44:24;25.90;97.90
52397;DHT22;38322;53.108;6.308;2023-06-24T11:46:50;26.10;97.90
52397;DHT22;38322;53.108;6.308;2023-06-24T11:49:16;26.30;97.70
52397;DHT22;38322;53.108;6.308;2023-06-24T11:51:49;26.50;98.20
52397;DHT22;38322;53.108;6.308;2023-06-24T11:54:18;26.50;98.30
52397;DHT22;38322;53.108;6.308;2023-06-24T11:56:50;26.30;98.10
52397;DHT22;38322;53.108;6.308;2023-06-24T11:59:19;26.10;98.20
52397;DHT22;38322;53.108;6.308;2023-06-24T12:01:53;26.30;97.80
52397;DHT22;38322;53.108;6.308;2023-06-24T12:04:20;26.40;97.80
52397;DHT22;38322;53.108;6.308;2023-06-24T12:06:47;26.30;97.20
52397;DHT22;38322;53.108;6.308;2023-06-24T12:09:13;26.50;97.00
52397;DHT22;38322;53.108;6.308;2023-06-24T12:11:39;26.70;97.20
52397;DHT22;38322;53.108;6.308;2023-06-24T12:14:05;26.70;97.10
52397;DHT22;38322;53.108;6.308;2023-06-24T12:16:31;26.80;97.10
52397;DHT22;38322;53.108;6.308;2023-06-24T12:18:57;26.90;97.10
52397;DHT22;38322;53.108;6.308;2023-06-24T12:21:23;27.00;96.80
52397;DHT22;38322;53.108;6.308;2023-06-24T12:23:49;26.90;97.00
52397;DHT22;38322;53.108;6.308;2023-06-24T12:26:14;26.60;97.70
52397;DHT22;38322;53.108;6.308;2023-06-24T12:28:41;26.50;98.40
52397;DHT22;38322;53.108;6.308;2023-06-24T12:31:06;26.40;98.50
52397;DHT22;38322;53.108;6.308;2023-06-24T12:33:32;26.20;98.50
52397;DHT22;38322;53.108;6.308;2023-06-24T12:35:59;26.20;98.70
52397;DHT22;38322;53.108;6.308;2023-06-24T12:38:25;26.30;98.60
52397;DHT22;38322;53.108;6.308;2023-06-24T12:40:50;26.30;98.60
52397;DHT22;38322;53.108;6.308;2023-06-24T12:43:16;26.40;98.30
52397;DHT22;38322;53.108;6.308;2023-06-24T12:45:42;26.40;97.70
52397;DHT22;38322;53.108;6.308;2023-06-24T12:48:10;26.40;97.80
52397;DHT22;38322;53.108;6.308;2023-06-24T12:50:36;26.40;98.00
52397;DHT22;38322;53.108;6.308;2023-06-24T12:53:02;26.60;98.00
52397;DHT22;38322;53.108;6.308;2023-06-24T12:55:29;26.70;97.60
52397;DHT22;38322;53.108;6.308;2023-06-24T12:57:55;26.80;97.70
52397;DHT22;38322;53.108;6.308;2023-06-24T13:00:23;27.00;98.10
52397;DHT22;38322;53.108;6.308;2023-06-24T13:02:49;26.80;98.00
52397;DHT22;38322;53.108;6.308;2023-06-24T13:05:16;26.70;98.40
52397;DHT22;38322;53.108;6.308;2023-06-24T13:07:42;26.90;98.20
52397;DHT22;38322;53.108;6.308;2023-06-24T13:10:09;27.00;97.90
52397;DHT22;38322;53.108;6.308;2023-06-24T13:12:35;27.10;98.00
52397;DHT22;38322;53.108;6.308;2023-06-24T13:15:02;26.90;97.30
52397;DHT22;38322;53.108;6.308;2023-06-24T13:17:30;27.00;97.50
52397;DHT22;38322;53.108;6.308;2023-06-24T13:19:56;27.30;97.30
52397;DHT22;38322;53.108;6.308;2023-06-24T13:22:23;27.70;97.10
52397;DHT22;38322;53.108;6.308;2023-06-24T13:24:49;27.70;97.10
52397;DHT22;38322;53.108;6.308;2023-06-24T13:27:16;27.60;96.70
52397;DHT22;38322;53.108;6.308;2023-06-24T13:29:42;27.80;97.10
52397;DHT22;38322;53.108;6.308;2023-06-24T13:32:08;27.80;96.80
52397;DHT22;38322;53.108;6.308;2023-06-24T13:34:35;27.60;96.80
52397;DHT22;38322;53.108;6.308;2023-06-24T13:37:01;27.50;96.80
52397;DHT22;38322;53.108;6.308;2023-06-24T13:39:26;27.30;97.20
52397;DHT22;38322;53.108;6.308;2023-06-24T13:41:53;27.10;97.50
52397;DHT22;38322;53.108;6.308;2023-06-24T13:44:19;26.90;97.50
52397;DHT22;38322;53.108;6.308;2023-06-24T13:46:45;26.70;97.90
52397;DHT22;38322;53.108;6.308;2023-06-24T13:49:11;26.60;98.10
52397;DHT22;38322;53.108;6.308;2023-06-24T13:51:37;26.60;97.90
52397;DHT22;38322;53.108;6.308;2023-06-24T13:54:03;26.60;98.00
52397;DHT22;38322;53.108;6.308;2023-06-24T13:56:30;26.70;97.90
52397;DHT22;38322;53.108;6.308;2023-06-24T13:58:56;26.90;98.30
52397;DHT22;38322;53.108;6.308;2023-06-24T14:01:22;26.80;97.80
52397;DHT22;38322;53.108;6.308;2023-06-24T14:03:49;26.80;97.50
52397;DHT22;38322;53.108;6.308;2023-06-24T14:06:18;27.20;97.10
52397;DHT22;38322;53.108;6.308;2023-06-24T14:08:44;27.30;96.90
52397;DHT22;38322;53.108;6.308;2023-06-24T14:11:10;27.50;97.20
52397;DHT22;38322;53.108;6.308;2023-06-24T14:13:36;27.70;96.50
52397;DHT22;38322;53.108;6.308;2023-06-24T14:16:02;27.90;96.00
52397;DHT22;38322;53.108;6.308;2023-06-24T14:18:29;28.30;96.00
52397;DHT22;38322;53.108;6.308;2023-06-24T14:21:03;28.70;95.90
52397;DHT22;38322;53.108;6.308;2023-06-24T14:23:29;28.90;95.60
52397;DHT22;38322;53.108;6.308;2023-06-24T14:25:56;29.10;94.70
52397;DHT22;38322;53.108;6.308;2023-06-24T14:28:23;29.20;94.90
52397;DHT22;38322;53.108;6.308;2023-06-24T14:30:49;29.30;94.50
52397;DHT22;38322;53.108;6.308;2023-06-24T14:33:15;29.40;94.20
52397;DHT22;38322;53.108;6.308;2023-06-24T14:35:42;29.60;93.80
52397;DHT22;38322;53.108;6.308;2023-06-24T14:38:07;29.80;94.10
52397;DHT22;38322;53.108;6.308;2023-06-24T14:40:34;29.80;93.60
52397;DHT22;38322;53.108;6.308;2023-06-24T14:43:00;30.00;93.30
52397;DHT22;38322;53.108;6.308;2023-06-24T14:45:26;30.10;92.40
52397;DHT22;38322;53.108;6.308;2023-06-24T14:47:52;30.00;92.50
52397;DHT22;38322;53.108;6.308;2023-06-24T14:50:19;30.30;92.80
52397;DHT22;38322;53.108;6.308;2023-06-24T14:52:45;30.40;92.10
52397;DHT22;38322;53.108;6.308;2023-06-24T14:55:10;30.40;92.10
52397;DHT22;38322;53.108;6.308;2023-06-24T14:57:37;30.40;91.80
52397;DHT22;38322;53.108;6.308;2023-06-24T15:00:06;30.50;92.00
52397;DHT22;38322;53.108;6.308;2023-06-24T15:02:32;30.40;91.50
52397;DHT22;38322;53.108;6.308;2023-06-24T15:04:57;30.20;91.00
52397;DHT22;38322;53.108;6.308;2023-06-24T15:07:24;30.70;91.00
52397;DHT22;38322;53.108;6.308;2023-06-24T15:09:50;30.90;91.40
52397;DHT22;38322;53.108;6.308;2023-06-24T15:12:16;31.10;91.50
52397;DHT22;38322;53.108;6.308;2023-06-24T15:14:41;31.20;91.20
52397;DHT22;38322;53.108;6.308;2023-06-24T15:17:10;30.80;89.60
52397;DHT22;38322;53.108;6.308;2023-06-24T15:19:36;30.90;89.80
52397;DHT22;38322;53.108;6.308;2023-06-24T15:22:02;30.80;89.80
52397;DHT22;38322;53.108;6.308;2023-06-24T15:24:28;31.10;90.10
52397;DHT22;38322;53.108;6.308;2023-06-24T15:26:55;31.20;89.50
52397;DHT22;38322;53.108;6.308;2023-06-24T15:29:21;30.90;89.90
52397;DHT22;38322;53.108;6.308;2023-06-24T15:31:47;30.80;90.20
52397;DHT22;38322;53.108;6.308;2023-06-24T15:34:13;31.10;91.00
52397;DHT22;38322;53.108;6.308;2023-06-24T15:36:39;30.80;90.20
52397;DHT22;38322;53.108;6.308;2023-06-24T15:39:06;30.40;90.20
52397;DHT22;38322;53.108;6.308;2023-06-24T15:41:32;29.80;89.90
52397;DHT22;38322;53.108;6.308;2023-06-24T15:43:58;29.40;90.30
52397;DHT22;38322;53.108;6.308;2023-06-24T15:46:24;29.70;90.90
52397;DHT22;38322;53.108;6.308;2023-06-24T15:48:49;30.10;90.90
52397;DHT22;38322;53.108;6.308;2023-06-24T15:51:15;30.40;90.70
52397;DHT22;38322;53.108;6.308;2023-06-24T15:53:41;30.70;90.70
52397;DHT22;38322;53.108;6.308;2023-06-24T15:56:07;30.90;90.50
52397;DHT22;38322;53.108;6.308;2023-06-24T15:58:33;31.10;90.90
52397;DHT22;38322;53.108;6.308;2023-06-24T16:00:59;31.30;90.80
52397;DHT22;38322;53.108;6.308;2023-06-24T16:03:25;31.40;90.70
52397;DHT22;38322;53.108;6.308;2023-06-24T16:05:51;31.30;90.30
52397;DHT22;38322;53.108;6.308;2023-06-24T16:08:16;31.10;90.10
52397;DHT22;38322;53.108;6.308;2023-06-24T16:10:42;30.80;90.40
52397;DHT22;38322;53.108;6.308;2023-06-24T16:13:08;30.10;91.50
52397;DHT22;38322;53.108;6.308;2023-06-24T16:15:34;29.60;92.50
52397;DHT22;38322;53.108;6.308;2023-06-24T16:18:00;29.40;93.10
52397;DHT22;38322;53.108;6.308;2023-06-24T16:20:25;28.70;93.70
52397;DHT22;38322;53.108;6.308;2023-06-24T16:22:51;28.50;94.00
52397;DHT22;38322;53.108;6.308;2023-06-24T16:25:17;28.00;94.30
52397;DHT22;38322;53.108;6.308;2023-06-24T16:27:43;27.60;94.80
52397;DHT22;38322;53.108;6.308;2023-06-24T16:30:09;27.50;95.20
52397;DHT22;38322;53.108;6.308;2023-06-24T16:32:35;27.40;95.40
52397;DHT22;38322;53.108;6.308;2023-06-24T16:35:01;27.20;95.70
52397;DHT22;38322;53.108;6.308;2023-06-24T16:37:27;27.10;95.90
52397;DHT22;38322;53.108;6.308;2023-06-24T16:39:53;26.90;96.20
52397;DHT22;38322;53.108;6.308;2023-06-24T16:42:19;26.70;96.10
52397;DHT22;38322;53.108;6.308;2023-06-24T16:44:44;26.50;96.50
52397;DHT22;38322;53.108;6.308;2023-06-24T16:47:12;26.40;96.70
52397;DHT22;38322;53.108;6.308;2023-06-24T16:49:38;26.40;96.90
52397;DHT22;38322;53.108;6.308;2023-06-24T16:52:04;26.30;97.00
52397;DHT22;38322;53.108;6.308;2023-06-24T16:54:30;26.20;97.20
52397;DHT22;38322;53.108;6.308;2023-06-24T16:56:56;26.00;97.50
52397;DHT22;38322;53.108;6.308;2023-06-24T16:59:22;26.00;97.60
52397;DHT22;38322;53.108;6.308;2023-06-24T17:01:48;25.80;97.80
52397;DHT22;38322;53.108;6.308;2023-06-24T17:04:14;25.70;98.00
52397;DHT22;38322;53.108;6.308;2023-06-24T17:06:39;25.60;98.10
52397;DHT22;38322;53.108;6.308;2023-06-24T17:09:05;25.50;98.10
52397;DHT22;38322;53.108;6.308;2023-06-24T17:11:32;25.40;98.60
52397;DHT22;38322;53.108;6.308;2023-06-24T17:13:58;25.40;98.50
52397;DHT22;38322;53.108;6.308;2023-06-24T17:16:24;25.30;98.60
52397;DHT22;38322;53.108;6.308;2023-06-24T17:18:49;25.30;98.80
52397;DHT22;38322;53.108;6.308;2023-06-24T17:21:15;25.30;98.80
52397;DHT22;38322;53.108;6.308;2023-06-24T17:23:41;25.30;98.80
52397;DHT22;38322;53.108;6.308;2023-06-24T17:26:07;25.30;98.90
52397;DHT22;38322;53.108;6.308;2023-06-24T17:28:33;25.20;99.00
52397;DHT22;38322;53.108;6.308;2023-06-24T17:30:59;25.20;99.20
52397;DHT22;38322;53.108;6.308;2023-06-24T17:33:25;25.10;99.10
52397;DHT22;38322;53.108;6.308;2023-06-24T17:35:52;25.00;99.30
52397;DHT22;38322;53.108;6.308;2023-06-24T17:38:18;25.10;99.50
52397;DHT22;38322;53.108;6.308;2023-06-24T17:40:43;25.30;99.60
52397;DHT22;38322;53.108;6.308;2023-06-24T17:43:09;25.70;99.20
52397;DHT22;38322;53.108;6.308;2023-06-24T17:45:35;26.20;98.90
52397;DHT22;38322;53.108;6.308;2023-06-24T17:48:01;26.70;98.50
52397;DHT22;38322;53.108;6.308;2023-06-24T17:50:31;27.20;98.00
52397;DHT22;38322;53.108;6.308;2023-06-24T17:52:58;27.30;97.30
52397;DHT22;38322;53.108;6.308;2023-06-24T17:55:24;27.40;97.20
52397;DHT22;38322;53.108;6.308;2023-06-24T17:57:52;27.50;97.30
52397;DHT22;38322;53.108;6.308;2023-06-24T18:00:18;27.40;96.90
52397;DHT22;38322;53.108;6.308;2023-06-24T18:02:44;27.20;96.80
52397;DHT22;38322;53.108;6.308;2023-06-24T18:05:10;26.90;97.00
52397;DHT22;38322;53.108;6.308;2023-06-24T18:07:36;26.70;97.50
52397;DHT22;38322;53.108;6.308;2023-06-24T18:10:02;26.30;97.80
52397;DHT22;38322;53.108;6.308;2023-06-24T18:12:28;25.90;97.90
52397;DHT22;38322;53.108;6.308;2023-06-24T18:14:54;25.60;98.30
52397;DHT22;38322;53.108;6.308;2023-06-24T18:17:20;25.30;98.50
52397;DHT22;38322;53.108;6.308;2023-06-24T18:19:46;25.20;98.90
52397;DHT22;38322;53.108;6.308;2023-06-24T18:22:12;24.90;99.00
52397;DHT22;38322;53.108;6.308;2023-06-24T18:24:38;24.80;99.30
52397;DHT22;38322;53.108;6.308;2023-06-24T18:27:05;24.60;99.40
52397;DHT22;38322;53.108;6.308;2023-06-24T18:29:31;24.50;99.40
52397;DHT22;38322;53.108;6.308;2023-06-24T18:31:56;24.50;99.50
52397;DHT22;38322;53.108;6.308;2023-06-24T18:34:23;24.40;99.70
52397;DHT22;38322;53.108;6.308;2023-06-24T18:36:50;24.40;99.80
52397;DHT22;38322;53.108;6.308;2023-06-24T18:39:15;24.30;99.90
52397;DHT22;38322;53.108;6.308;2023-06-24T18:41:41;24.10;99.90
52397;DHT22;38322;53.108;6.308;2023-06-24T18:44:07;24.00;99.90
52397;DHT22;38322;53.108;6.308;2023-06-24T18:46:35;23.90;99.90
52397;DHT22;38322;53.108;6.308;2023-06-24T18:49:01;23.80;99.90
52397;DHT22;38322;53.108;6.308;2023-06-24T18:51:27;23.70;99.90
52397;DHT22;38322;53.108;6.308;2023-06-24T18:53:53;23.60;99.90
52397;DHT22;38322;53.108;6.308;2023-06-24T18:56:18;23.60;99.90
52397;DHT22;38322;53.108;6.308;2023-06-24T18:58:44;23.50;99.90
52397;DHT22;38322;53.108;6.308;2023-06-24T19:01:10;23.40;99.90
52397;DHT22;38322;53.108;6.308;2023-06-24T19:03:36;23.30;99.90
52397;DHT22;38322;53.108;6.308;2023-06-24T19:06:04;23.30;99.90
52397;DHT22;38322;53.108;6.308;2023-06-24T19:08:30;23.20;99.90
52397;DHT22;38322;53.108;6.308;2023-06-24T19:10:56;23.10;99.90
52397;DHT22;38322;53.108;6.308;2023-06-24T19:13:22;23.00;99.90
52397;DHT22;38322;53.108;6.308;2023-06-24T19:15:48;22.90;99.90
52397;DHT22;38322;53.108;6.308;2023-06-24T19:18:13;22.90;99.90
52397;DHT22;38322;53.108;6.308;2023-06-24T19:20:39;22.90;99.90
52397;DHT22;38322;53.108;6.308;2023-06-24T19:23:06;22.90;99.90
52397;DHT22;38322;53.108;6.308;2023-06-24T19:25:33;22.80;99.90
52397;DHT22;38322;53.108;6.308;2023-06-24T19:27:59;22.70;99.90
52397;DHT22;38322;53.108;6.308;2023-06-24T19:30:25;22.60;99.90
52397;DHT22;38322;53.108;6.308;2023-06-24T19:32:51;22.50;99.90
52397;DHT22;38322;53.108;6.308;2023-06-24T19:35:17;22.40;99.90
52397;DHT22;38322;53.108;6.308;2023-06-24T19:37:44;22.30;99.90
52397;DHT22;38322;53.108;6.308;2023-06-24T19:40:10;22.20;99.90
52397;DHT22;38322;53.108;6.308;2023-06-24T19:42:37;22.10;99.90
52397;DHT22;38322;53.108;6.308;2023-06-24T19:45:04;22.00;99.90
52397;DHT22;38322;53.108;6.308;2023-06-24T19:47:30;21.90;99.90
52397;DHT22;38322;53.108;6.308;2023-06-24T19:49:57;21.90;99.90
52397;DHT22;38322;53.108;6.308;2023-06-24T19:52:24;21.80;99.90
52397;DHT22;38322;53.108;6.308;2023-06-24T19:54:50;21.60;99.90
52397;DHT22;38322;53.108;6.308;2023-06-24T19:57:18;21.60;99.90
52397;DHT22;38322;53.108;6.308;2023-06-24T19:59:44;21.40;99.90
